Time;durP1;ratioP1;P1;durP2;ratioP2;P2;SDS_P1;SDS_P2;PMS_P1;PMS_P2;Temp;Humidity;BMP_temperature;BMP_pressure;BME280_temperature;BME280_humidity;BME280_pressure;Samples;Min_cycle;Max_cycle;Signal;HPM_P1;HPM_P2
2023/03/01 00:00:14;;;;;;;1.90;1.80;;;0.80;99.90;;;;;;5059496;28;20745;-65
2023/03/01 00:02:42;;;;;;;2.15;2.00;;;0.80;99.90;;;;;;5058323;28;20216;-64
2023/03/01 00:05:09;;;;;;;1.80;1.70;;;0.70;99.90;;;;;;5059198;28;20197;-65
2023/03/01 00:07:36;;;;;;;2.05;1.95;;;0.70;99.90;;;;;;5062288;28;20957;-64
2023/03/01 00:10:06;;;;;;;2.17;2.08;;;0.70;99.90;;;;;;5056544;28;20206;-63
2023/03/01 00:12:33;;;;;;;1.85;1.75;;;0.80;99.90;;;;;;5057836;28;20234;-63
2023/03/01 00:15:00;;;;;;;2.45;1.95;;;0.70;99.90;;;;;;5066464;28;20814;-62
2023/03/01 00:17:28;;;;;;;1.90;1.80;;;0.70;99.90;;;;;;5072361;28;20209;-64
2023/03/01 00:19:55;;;;;;;2.20;1.90;;;0.80;99.90;;;;;;5071917;28;20669;-62
2023/03/01 00:22:23;;;;;;;2.13;2.03;;;0.80;99.90;;;;;;5071362;28;20223;-63
2023/03/01 00:24:50;;;;;;;2.20;2.10;;;0.80;99.90;;;;;;5071122;28;20257;-63
2023/03/01 00:27:18;;;;;;;1.85;1.75;;;0.80;99.90;;;;;;5052185;28;20242;-63
2023/03/01 00:29:46;;;;;;;1.67;1.57;;;0.80;99.90;;;;;;5051336;28;20218;-63
2023/03/01 00:32:13;;;;;;;1.77;1.67;;;0.80;99.90;;;;;;5050509;28;20219;-63
2023/03/01 00:34:39;;;;;;;1.88;1.77;;;0.70;99.90;;;;;;5049847;28;20219;-63
2023/03/01 00:37:06;;;;;;;1.90;1.80;;;0.80;99.90;;;;;;5050883;28;20223;-63
2023/03/01 00:39:33;;;;;;;1.95;1.85;;;0.80;99.90;;;;;;5050578;28;20211;-64
2023/03/01 00:42:00;;;;;;;1.90;1.80;;;0.70;99.90;;;;;;5051267;28;20293;-62
2023/03/01 00:44:28;;;;;;;2.22;2.13;;;0.60;99.90;;;;;;5051580;28;20666;-63
2023/03/01 00:46:55;;;;;;;1.83;1.73;;;0.60;99.90;;;;;;5051423;28;20670;-63
2023/03/01 00:49:24;;;;;;;2.20;2.10;;;0.50;99.90;;;;;;5050983;28;20210;-64
2023/03/01 00:51:51;;;;;;;1.92;1.83;;;0.50;99.90;;;;;;5050076;28;20228;-64
2023/03/01 00:54:17;;;;;;;2.00;1.90;;;0.60;99.90;;;;;;5047030;28;20208;-64
2023/03/01 00:56:44;;;;;;;2.00;1.90;;;0.60;99.90;;;;;;5050571;28;20277;-63
2023/03/01 00:59:11;;;;;;;1.90;1.80;;;0.60;99.90;;;;;;5053728;28;20203;-65
2023/03/01 01:01:39;;;;;;;1.75;1.65;;;0.60;99.90;;;;;;5053458;28;20591;-65
2023/03/01 01:04:09;;;;;;;2.00;1.90;;;0.70;99.90;;;;;;5052968;28;20204;-63
2023/03/01 01:06:37;;;;;;;1.90;1.80;;;0.60;99.90;;;;;;5053747;28;20211;-63
2023/03/01 01:09:06;;;;;;;2.00;1.90;;;0.70;99.90;;;;;;5053837;28;20208;-63
2023/03/01 01:11:34;;;;;;;2.00;1.90;;;0.70;99.90;;;;;;5053360;28;20235;-63
2023/03/01 01:14:01;;;;;;;1.90;1.80;;;0.60;99.90;;;;;;5058351;28;20208;-63
2023/03/01 01:16:30;;;;;;;2.00;1.90;;;0.60;99.90;;;;;;5060050;28;20235;-63
2023/03/01 01:18:58;;;;;;;2.10;2.00;;;0.50;99.90;;;;;;5053823;28;20286;-62
2023/03/01 01:21:26;;;;;;;1.90;1.80;;;0.60;99.90;;;;;;5053058;28;20228;-64
2023/03/01 01:23:53;;;;;;;1.70;1.60;;;0.60;99.90;;;;;;5053059;28;20220;-63
2023/03/01 01:26:23;;;;;;;1.73;1.63;;;0.60;99.90;;;;;;5053235;28;20712;-64
2023/03/01 01:28:51;;;;;;;2.03;1.92;;;0.50;99.90;;;;;;5053896;28;20212;-63
2023/03/01 01:31:18;;;;;;;1.83;1.73;;;0.50;99.90;;;;;;5053027;28;20570;-63
2023/03/01 01:33:46;;;;;;;2.05;1.95;;;0.50;99.90;;;;;;5053243;28;20207;-64
2023/03/01 01:36:14;;;;;;;2.20;2.10;;;0.40;99.90;;;;;;5052566;28;20822;-62
2023/03/01 01:38:42;;;;;;;2.08;1.98;;;0.30;99.90;;;;;;5053138;28;20208;-64
2023/03/01 01:41:11;;;;;;;1.90;1.80;;;0.30;99.90;;;;;;5052803;28;20231;-64
2023/03/01 01:43:40;;;;;;;2.00;1.90;;;0.30;99.90;;;;;;5053006;28;20296;-64
2023/03/01 01:46:16;;;;;;;2.70;2.10;;;0.30;99.90;;;;;;5052350;28;20216;-63
2023/03/01 01:48:47;;;;;;;2.00;1.90;;;0.30;99.90;;;;;;5053339;28;20211;-64
2023/03/01 01:51:18;;;;;;;1.95;1.85;;;0.30;99.90;;;;;;5052918;28;20331;-63
2023/03/01 01:53:48;;;;;;;1.80;1.70;;;0.30;99.90;;;;;;5052738;28;20283;-64
2023/03/01 01:56:16;;;;;;;1.80;1.70;;;0.30;99.90;;;;;;5052159;28;20569;-64
2023/03/01 01:58:44;;;;;;;2.10;2.00;;;0.30;99.90;;;;;;5053572;28;20204;-63
2023/03/01 02:01:12;;;;;;;1.80;1.70;;;0.20;99.90;;;;;;5054599;28;20230;-63
2023/03/01 02:03:41;;;;;;;1.92;1.83;;;0.30;99.90;;;;;;5052967;28;20192;-64
2023/03/01 02:06:18;;;;;;;2.13;1.97;;;0.20;99.90;;;;;;5051999;28;20218;-63
2023/03/01 02:08:46;;;;;;;2.00;1.90;;;0.30;99.90;;;;;;5051758;28;20188;-64
2023/03/01 02:11:15;;;;;;;2.13;2.03;;;0.40;99.90;;;;;;5052289;28;20285;-63
2023/03/01 02:13:43;;;;;;;1.80;1.70;;;0.40;99.90;;;;;;5052550;28;20668;-65
2023/03/01 02:16:13;;;;;;;2.00;1.90;;;0.30;99.90;;;;;;5051092;28;20228;-64
2023/03/01 02:18:42;;;;;;;2.00;1.90;;;0.30;99.90;;;;;;5052440;28;20203;-63
2023/03/01 02:21:26;;;;;;;1.95;1.85;;;0.30;99.90;;;;;;5052283;28;20228;-62
2023/03/01 02:23:55;;;;;;;2.35;2.25;;;0.20;99.90;;;;;;5052327;28;20208;-62
2023/03/01 02:26:31;;;;;;;2.00;1.90;;;0.20;99.90;;;;;;5052953;28;20238;-62
2023/03/01 02:29:00;;;;;;;1.90;1.80;;;0.20;99.90;;;;;;5052863;28;20226;-62
2023/03/01 02:31:42;;;;;;;1.90;1.80;;;0.00;99.90;;;;;;5049224;28;20234;-62
2023/03/01 02:34:11;;;;;;;2.20;2.10;;;-0.10;99.90;;;;;;5052044;28;20211;-63
2023/03/01 02:36:41;;;;;;;1.87;1.77;;;-0.10;99.90;;;;;;5052655;28;20208;-62
2023/03/01 02:39:14;;;;;;;2.13;2.03;;;-0.20;99.90;;;;;;5053803;28;20215;-62
2023/03/01 02:41:47;;;;;;;2.10;2.00;;;-0.20;99.90;;;;;;5056420;28;20630;-65
2023/03/01 02:44:16;;;;;;;1.88;1.77;;;-0.10;99.90;;;;;;5053919;28;20199;-63
2023/03/01 02:46:44;;;;;;;2.20;2.10;;;0.00;99.90;;;;;;5052191;28;20224;-63
2023/03/01 02:49:21;;;;;;;2.10;2.00;;;0.10;99.90;;;;;;5052212;28;20204;-62
2023/03/01 02:52:09;;;;;;;2.05;1.95;;;0.10;99.90;;;;;;5052242;28;20235;-64
2023/03/01 02:54:42;;;;;;;2.03;1.90;;;0.00;99.90;;;;;;5049962;28;20356;-64
2023/03/01 02:57:10;;;;;;;2.10;2.00;;;-0.10;99.90;;;;;;5052159;28;20635;-62
2023/03/01 02:59:40;;;;;;;2.70;2.22;;;-0.10;99.90;;;;;;5052324;28;20204;-63
2023/03/01 03:02:07;;;;;;;1.95;1.85;;;-0.10;99.90;;;;;;5052580;28;20220;-62
2023/03/01 03:04:34;;;;;;;2.15;2.05;;;-0.10;99.90;;;;;;5051580;28;20204;-64
2023/03/01 03:07:01;;;;;;;1.77;1.67;;;-0.10;99.90;;;;;;5052044;28;20192;-63
2023/03/01 03:09:28;;;;;;;2.20;2.10;;;0.00;99.90;;;;;;5051834;28;20210;-64
2023/03/01 03:11:55;;;;;;;2.47;2.27;;;0.00;99.90;;;;;;5052023;28;20235;-63
2023/03/01 03:14:21;;;;;;;2.20;2.05;;;0.00;99.90;;;;;;5052139;28;20571;-63
2023/03/01 03:16:51;;;;;;;2.17;2.08;;;-0.10;99.90;;;;;;5055943;28;20224;-66
2023/03/01 03:19:20;;;;;;;2.10;2.00;;;-0.10;99.90;;;;;;5061183;28;20255;-63
2023/03/01 03:21:47;;;;;;;2.28;2.17;;;0.00;99.90;;;;;;5059692;28;20223;-64
2023/03/01 03:24:14;;;;;;;2.05;1.95;;;-0.10;99.90;;;;;;5062003;28;20227;-64
2023/03/01 03:26:40;;;;;;;2.33;2.23;;;-0.30;99.90;;;;;;5062499;28;20204;-63
2023/03/01 03:29:07;;;;;;;2.05;1.95;;;-0.30;99.90;;;;;;5059048;28;20212;-63
2023/03/01 03:31:35;;;;;;;1.90;1.80;;;-0.20;99.90;;;;;;5051311;28;20737;-62
2023/03/01 03:34:03;;;;;;;2.30;2.20;;;-0.10;99.90;;;;;;5051093;28;20624;-63
2023/03/01 03:36:30;;;;;;;2.13;2.03;;;-0.10;99.90;;;;;;5051257;28;20234;-62
2023/03/01 03:38:56;;;;;;;1.92;1.83;;;-0.10;99.90;;;;;;5051451;28;20279;-62
2023/03/01 03:41:23;;;;;;;2.22;2.13;;;-0.10;99.90;;;;;;5053566;28;20223;-63
2023/03/01 03:43:50;;;;;;;2.13;2.03;;;0.00;99.90;;;;;;5051540;28;20216;-62
2023/03/01 03:46:17;;;;;;;2.40;2.30;;;-0.10;99.90;;;;;;5054825;28;20203;-62
2023/03/01 03:48:46;;;;;;;2.50;2.40;;;-0.10;99.90;;;;;;5052257;28;20207;-63
2023/03/01 03:51:16;;;;;;;2.00;1.90;;;-0.10;99.90;;;;;;5052343;28;20223;-61
2023/03/01 03:53:43;;;;;;;2.22;2.13;;;0.00;99.90;;;;;;5051943;28;20674;-62
2023/03/01 03:56:11;;;;;;;2.58;2.47;;;-0.10;99.90;;;;;;5050495;28;20223;-64
2023/03/01 03:58:38;;;;;;;2.28;2.17;;;-0.20;99.90;;;;;;5050816;28;20616;-62
2023/03/01 04:01:05;;;;;;;2.42;2.33;;;-0.30;99.90;;;;;;5050792;28;20582;-63
2023/03/01 04:03:34;;;;;;;2.60;2.50;;;-0.40;99.90;;;;;;5051146;28;20204;-62
2023/03/01 04:06:02;;;;;;;2.20;2.10;;;-0.40;99.90;;;;;;5050537;28;20224;-63
2023/03/01 04:08:30;;;;;;;2.33;2.22;;;-0.40;99.90;;;;;;5050811;28;20262;-64
2023/03/01 04:11:25;;;;;;;2.28;2.17;;;-0.40;99.90;;;;;;5050418;28;20235;-63
2023/03/01 04:13:49;;;;;;;2.17;2.08;;;-0.40;99.90;;;;;;5050569;28;20204;-64
2023/03/01 04:16:16;;;;;;;2.10;2.00;;;-0.40;99.90;;;;;;5050329;28;20678;-64
2023/03/01 04:18:42;;;;;;;2.20;2.10;;;-0.40;99.90;;;;;;5050930;28;20214;-63
2023/03/01 04:21:11;;;;;;;2.13;2.03;;;-0.30;99.90;;;;;;5050556;28;20257;-64
2023/03/01 04:23:40;;;;;;;2.15;2.05;;;-0.30;99.90;;;;;;5051053;28;20218;-62
2023/03/01 04:26:07;;;;;;;2.53;2.28;;;-0.30;99.90;;;;;;5056373;28;20208;-65
2023/03/01 04:28:36;;;;;;;2.13;2.03;;;-0.20;99.90;;;;;;5057417;28;20658;-62
2023/03/01 04:31:12;;;;;;;2.22;2.13;;;-0.20;99.90;;;;;;5056079;28;20233;-65
2023/03/01 04:33:40;;;;;;;2.30;2.20;;;-0.20;99.90;;;;;;5056753;28;20604;-62
2023/03/01 04:36:09;;;;;;;2.47;2.38;;;-0.20;99.90;;;;;;5057394;28;21059;-63
2023/03/01 04:38:37;;;;;;;2.35;2.15;;;-0.30;99.90;;;;;;5060812;28;20250;-63
2023/03/01 04:41:05;;;;;;;2.50;2.40;;;-0.50;99.90;;;;;;5050902;28;20293;-63
2023/03/01 04:43:33;;;;;;;2.17;2.07;;;-0.60;99.90;;;;;;5050443;28;20208;-63
2023/03/01 04:46:04;;;;;;;1.77;1.67;;;-0.60;99.90;;;;;;5049989;28;20212;-63
2023/03/01 04:48:31;;;;;;;2.42;2.30;;;-0.50;99.90;;;;;;5050899;28;20207;-63
2023/03/01 04:50:59;;;;;;;2.20;2.10;;;-0.40;99.90;;;;;;5050438;28;20243;-62
2023/03/01 04:53:26;;;;;;;2.20;2.10;;;-0.30;99.90;;;;;;5050210;28;20276;-61
2023/03/01 04:55:54;;;;;;;2.63;2.50;;;-0.30;99.90;;;;;;5049813;28;20223;-63
2023/03/01 04:58:23;;;;;;;2.42;2.33;;;-0.30;99.90;;;;;;5050820;28;20203;-65
2023/03/01 05:00:49;;;;;;;2.53;2.42;;;-0.30;99.90;;;;;;5050306;28;20214;-63
2023/03/01 05:03:17;;;;;;;3.10;2.90;;;-0.20;99.90;;;;;;5050806;28;20204;-64
2023/03/01 05:05:45;;;;;;;2.67;2.50;;;-0.20;99.90;;;;;;5049886;28;20200;-63
2023/03/01 05:08:17;;;;;;;2.20;2.10;;;-0.20;99.90;;;;;;5050718;28;20200;-63
2023/03/01 05:10:45;;;;;;;2.67;2.57;;;-0.10;99.90;;;;;;5052895;28;20265;-63
2023/03/01 05:13:14;;;;;;;2.47;2.38;;;-0.10;99.90;;;;;;5058498;28;20290;-62
2023/03/01 05:15:43;;;;;;;2.30;2.20;;;0.00;99.90;;;;;;5050683;28;20201;-63
2023/03/01 05:18:11;;;;;;;2.67;2.47;;;0.00;99.90;;;;;;5054859;28;20207;-64
2023/03/01 05:20:38;;;;;;;2.37;2.27;;;0.10;99.90;;;;;;5054467;28;20200;-62
2023/03/01 05:23:06;;;;;;;3.33;3.13;;;0.20;99.90;;;;;;5052482;28;20645;-64
2023/03/01 05:25:34;;;;;;;2.75;2.65;;;0.10;99.90;;;;;;5051314;28;20204;-65
2023/03/01 05:28:04;;;;;;;2.50;2.30;;;0.00;99.90;;;;;;5060039;28;20207;-64
2023/03/01 05:30:31;;;;;;;2.58;2.38;;;0.00;99.90;;;;;;5061229;28;20238;-62
2023/03/01 05:32:59;;;;;;;2.47;2.38;;;0.00;99.90;;;;;;5060448;28;20315;-63
2023/03/01 05:35:27;;;;;;;2.63;2.53;;;-0.10;99.90;;;;;;5060732;28;20271;-62
2023/03/01 05:37:54;;;;;;;2.60;2.50;;;-0.10;99.90;;;;;;5058872;28;20307;-62
2023/03/01 05:40:23;;;;;;;2.70;2.60;;;0.00;99.90;;;;;;5050271;28;20584;-62
2023/03/01 05:42:53;;;;;;;2.60;2.50;;;0.00;99.90;;;;;;5050135;28;20247;-62
2023/03/01 05:45:20;;;;;;;2.77;2.57;;;0.00;99.90;;;;;;5053266;28;20303;-62
2023/03/01 05:47:48;;;;;;;2.83;2.63;;;0.00;99.90;;;;;;5054257;28;20196;-62
2023/03/01 05:50:19;;;;;;;2.83;2.63;;;0.00;99.90;;;;;;5052772;28;20794;-62
2023/03/01 05:52:48;;;;;;;3.10;2.83;;;0.00;99.90;;;;;;5053199;28;20232;-64
2023/03/01 05:55:15;;;;;;;2.90;2.70;;;0.20;99.90;;;;;;5052373;28;20687;-62
2023/03/01 05:57:42;;;;;;;3.05;2.92;;;-0.10;99.90;;;;;;5052491;28;20219;-62
2023/03/01 06:00:10;;;;;;;2.80;2.70;;;0.00;99.90;;;;;;5048578;28;20202;-62
2023/03/01 06:02:37;;;;;;;3.38;3.17;;;0.00;99.90;;;;;;5052919;28;20285;-62
2023/03/01 06:05:05;;;;;;;3.20;3.00;;;-0.10;99.90;;;;;;5036761;28;20566;-63
2023/03/01 06:07:34;;;;;;;3.10;2.90;;;-0.10;99.90;;;;;;5050241;28;20256;-65
2023/03/01 06:10:02;;;;;;;3.00;2.90;;;0.00;99.90;;;;;;5060428;28;20212;-63
2023/03/01 06:12:33;;;;;;;3.28;3.08;;;-0.10;99.90;;;;;;5061815;28;20235;-63
2023/03/01 06:15:01;;;;;;;3.47;3.23;;;-0.10;99.90;;;;;;5058963;28;20200;-63
2023/03/01 06:17:31;;;;;;;3.42;3.22;;;0.00;99.90;;;;;;5047329;28;20243;-64
2023/03/01 06:19:58;;;;;;;3.25;3.05;;;0.00;99.90;;;;;;5040321;28;20263;-64
2023/03/01 06:22:24;;;;;;;3.00;2.80;;;0.00;99.90;;;;;;5043934;28;20971;-63
2023/03/01 06:24:53;;;;;;;3.40;3.20;;;0.00;99.90;;;;;;5044294;28;20204;-63
2023/03/01 06:27:20;;;;;;;3.30;3.10;;;0.00;99.90;;;;;;5053016;28;20666;-63
2023/03/01 06:29:46;;;;;;;3.38;3.17;;;0.10;99.90;;;;;;5053509;28;20203;-64
2023/03/01 06:32:13;;;;;;;3.25;3.05;;;0.10;99.90;;;;;;5052853;28;20222;-62
2023/03/01 06:34:40;;;;;;;3.42;3.22;;;0.00;99.90;;;;;;5052642;28;20573;-63
2023/03/01 06:37:08;;;;;;;2.95;2.75;;;0.00;99.90;;;;;;5053125;28;20315;-63
2023/03/01 06:39:34;;;;;;;3.20;3.00;;;0.00;99.90;;;;;;5053751;28;20211;-63
2023/03/01 06:42:03;;;;;;;2.90;2.80;;;0.00;99.90;;;;;;5052955;28;20238;-63
2023/03/01 06:44:30;;;;;;;3.25;3.05;;;0.10;99.90;;;;;;5048276;28;20603;-63
2023/03/01 06:46:57;;;;;;;2.90;2.70;;;0.10;99.90;;;;;;5044861;28;20247;-63
2023/03/01 06:49:24;;;;;;;3.28;3.08;;;0.00;99.90;;;;;;5053126;28;20223;-64
2023/03/01 06:51:51;;;;;;;3.78;3.58;;;-0.10;99.90;;;;;;5053904;28;20323;-62
2023/03/01 06:54:18;;;;;;;3.28;3.08;;;-0.10;99.90;;;;;;5052424;28;20589;-64
2023/03/01 06:56:47;;;;;;;3.78;3.47;;;0.00;99.90;;;;;;5053227;28;20224;-63
2023/03/01 06:59:16;;;;;;;3.10;3.00;;;0.10;99.90;;;;;;5052488;28;20204;-64
2023/03/01 07:01:43;;;;;;;3.17;2.97;;;0.00;99.90;;;;;;5051153;28;20224;-62
2023/03/01 07:04:10;;;;;;;2.85;2.75;;;-0.10;99.90;;;;;;5050228;28;20218;-64
2023/03/01 07:06:37;;;;;;;3.78;3.53;;;-0.10;99.90;;;;;;5051048;28;20207;-62
2023/03/01 07:09:04;;;;;;;3.50;2.97;;;-0.30;99.90;;;;;;5050623;28;20211;-63
2023/03/01 07:11:30;;;;;;;3.80;3.60;;;-0.20;99.90;;;;;;5050135;28;20235;-64
2023/03/01 07:13:58;;;;;;;3.47;3.28;;;-0.20;99.90;;;;;;5050201;28;20204;-63
2023/03/01 07:16:26;;;;;;;3.45;3.25;;;-0.20;99.90;;;;;;5051218;28;20216;-63
2023/03/01 07:18:53;;;;;;;3.17;3.00;;;-0.20;99.90;;;;;;5052520;28;20578;-64
2023/03/01 07:21:19;;;;;;;3.38;3.17;;;-0.10;99.90;;;;;;5054375;28;20227;-63
2023/03/01 07:23:48;;;;;;;3.70;3.50;;;0.10;99.90;;;;;;5057380;28;20204;-66
2023/03/01 07:26:15;;;;;;;3.53;3.22;;;0.10;99.90;;;;;;5055129;28;20325;-63
2023/03/01 07:28:42;;;;;;;3.40;3.20;;;0.10;99.90;;;;;;5053903;28;20200;-63
2023/03/01 07:31:08;;;;;;;5.57;3.65;;;0.10;99.90;;;;;;5052184;28;20220;-64
2023/03/01 07:33:37;;;;;;;3.40;3.20;;;0.10;99.90;;;;;;5052658;28;20204;-63
2023/03/01 07:36:05;;;;;;;3.38;3.17;;;0.10;99.90;;;;;;5052606;28;20295;-63
2023/03/01 07:38:32;;;;;;;3.60;3.40;;;0.10;99.90;;;;;;5053618;28;20231;-63
2023/03/01 07:41:00;;;;;;;3.42;3.22;;;0.10;99.90;;;;;;5052999;28;20220;-63
2023/03/01 07:43:28;;;;;;;3.88;3.67;;;0.20;99.90;;;;;;5052885;28;20257;-63
2023/03/01 07:45:55;;;;;;;3.63;3.42;;;0.30;99.90;;;;;;5052304;28;20212;-63
2023/03/01 07:48:21;;;;;;;3.00;2.90;;;0.30;99.90;;;;;;5053006;28;20206;-63
2023/03/01 07:50:50;;;;;;;4.18;3.88;;;0.50;99.90;;;;;;5052578;28;20218;-63
2023/03/01 07:53:16;;;;;;;4.00;3.70;;;0.50;99.90;;;;;;5052333;28;20200;-63
2023/03/01 07:55:43;;;;;;;3.58;3.38;;;0.50;99.90;;;;;;5051212;28;20678;-63
2023/03/01 07:58:10;;;;;;;7.05;6.38;;;0.60;99.90;;;;;;5051954;28;20219;-65
2023/03/01 08:00:37;;;;;;;3.78;3.58;;;0.80;99.90;;;;;;5052569;28;20207;-64
2023/03/01 08:03:04;;;;;;;3.97;3.67;;;0.80;99.90;;;;;;5052575;28;20214;-64
2023/03/01 08:05:30;;;;;;;4.35;4.05;;;0.80;99.90;;;;;;5051166;28;20200;-63
2023/03/01 08:07:59;;;;;;;4.00;3.80;;;0.80;99.90;;;;;;5051415;28;20204;-63
2023/03/01 08:10:25;;;;;;;4.00;3.80;;;0.80;99.90;;;;;;5051724;28;20217;-62
2023/03/01 08:12:53;;;;;;;3.72;3.53;;;0.80;99.90;;;;;;5051125;28;20238;-64
2023/03/01 08:15:20;;;;;;;3.35;3.15;;;0.80;99.90;;;;;;5050568;28;20219;-63
2023/03/01 08:17:49;;;;;;;3.60;3.40;;;0.60;99.90;;;;;;5051019;28;20698;-64
2023/03/01 08:20:17;;;;;;;4.13;3.83;;;0.70;99.90;;;;;;5051778;28;20216;-64
2023/03/01 08:22:44;;;;;;;4.00;3.80;;;0.70;99.90;;;;;;5051164;28;20220;-63
2023/03/01 08:25:12;;;;;;;4.10;3.80;;;0.70;99.90;;;;;;5050606;28;20207;-63
2023/03/01 08:27:39;;;;;;;3.60;3.40;;;0.70;99.90;;;;;;5053136;28;20264;-63
2023/03/01 08:30:07;;;;;;;4.40;4.18;;;0.80;99.90;;;;;;5055935;28;20688;-64
2023/03/01 08:32:37;;;;;;;3.92;3.70;;;0.80;99.90;;;;;;5054759;28;20227;-63
2023/03/01 08:35:04;;;;;;;4.22;3.95;;;0.60;99.90;;;;;;5053183;28;20200;-63
2023/03/01 08:37:33;;;;;;;3.63;3.42;;;0.70;99.90;;;;;;5051057;28;20227;-63
2023/03/01 08:39:59;;;;;;;4.00;3.70;;;0.60;99.90;;;;;;5051475;28;20243;-63
2023/03/01 08:42:28;;;;;;;3.97;3.67;;;0.70;99.90;;;;;;5051170;28;20223;-62
2023/03/01 08:44:54;;;;;;;3.63;3.42;;;0.80;99.90;;;;;;5050894;28;20895;-63
2023/03/01 08:47:21;;;;;;;4.45;4.13;;;0.90;99.90;;;;;;5050725;28;20727;-63
2023/03/01 08:49:49;;;;;;;4.15;3.88;;;0.90;99.90;;;;;;5051743;28;20210;-61
2023/03/01 08:52:16;;;;;;;4.10;3.80;;;1.00;99.90;;;;;;5051522;28;20224;-63
2023/03/01 08:54:43;;;;;;;3.70;3.50;;;1.00;99.90;;;;;;5050877;28;20218;-64
2023/03/01 08:57:10;;;;;;;3.50;3.30;;;1.10;99.90;;;;;;5050897;28;20637;-62
2023/03/01 08:59:38;;;;;;;3.78;3.58;;;1.20;99.90;;;;;;5051234;28;20200;-63
2023/03/01 09:02:05;;;;;;;3.60;3.40;;;1.30;99.90;;;;;;5050841;28;20253;-63
2023/03/01 09:04:33;;;;;;;4.15;3.85;;;1.60;99.90;;;;;;5051686;28;20211;-62
2023/03/01 09:06:59;;;;;;;3.83;3.63;;;1.50;99.90;;;;;;5051154;28;20263;-63
2023/03/01 09:09:26;;;;;;;3.90;3.70;;;1.50;99.90;;;;;;5052064;28;20295;-63
2023/03/01 09:11:53;;;;;;;4.07;3.80;;;1.60;99.90;;;;;;5050998;28;20236;-62
2023/03/01 09:14:20;;;;;;;4.20;4.00;;;1.60;99.90;;;;;;5050547;28;20269;-63
2023/03/01 09:16:48;;;;;;;4.50;4.03;;;1.60;99.90;;;;;;5050777;28;20208;-63
2023/03/01 09:19:15;;;;;;;3.40;3.20;;;1.80;99.90;;;;;;5054190;28;20204;-63
2023/03/01 09:21:52;;;;;;;3.67;3.47;;;2.10;99.90;;;;;;5059758;28;20228;-63
2023/03/01 09:24:20;;;;;;;3.93;3.73;;;2.20;99.90;;;;;;5059432;28;20787;-62
2023/03/01 09:26:47;;;;;;;3.50;3.30;;;2.40;99.90;;;;;;5059598;28;20207;-64
2023/03/01 09:29:15;;;;;;;3.80;3.60;;;2.60;99.90;;;;;;5060604;28;20242;-65
2023/03/01 09:31:42;;;;;;;3.47;3.28;;;2.90;99.90;;;;;;5058509;28;20223;-62
2023/03/01 09:34:10;;;;;;;3.22;3.05;;;3.10;99.90;;;;;;5054466;28;20211;-63
2023/03/01 09:36:37;;;;;;;4.07;3.83;;;3.30;99.90;;;;;;5056071;28;20693;-62
2023/03/01 09:39:06;;;;;;;4.18;3.88;;;3.40;99.90;;;;;;5054672;28;20303;-63
2023/03/01 09:41:44;;;;;;;3.90;3.70;;;3.50;99.90;;;;;;5053643;28;20227;-62
2023/03/01 09:44:21;;;;;;;3.40;3.20;;;3.60;99.90;;;;;;5053454;28;20581;-62
2023/03/01 09:46:48;;;;;;;3.85;3.55;;;3.80;99.90;;;;;;5054436;28;20290;-63
2023/03/01 09:49:20;;;;;;;3.50;3.30;;;4.00;99.90;;;;;;5053770;28;20200;-64
2023/03/01 09:51:56;;;;;;;3.90;3.70;;;4.10;99.90;;;;;;5054267;28;20263;-64
2023/03/01 09:54:23;;;;;;;3.70;3.50;;;4.20;99.90;;;;;;5054105;28;20207;-63
2023/03/01 09:57:05;;;;;;;3.42;3.22;;;4.30;99.90;;;;;;5054533;28;20208;-64
2023/03/01 09:59:46;;;;;;;3.63;3.33;;;4.40;99.90;;;;;;5054854;28;20279;-63
2023/03/01 10:02:27;;;;;;;3.90;3.70;;;4.50;99.90;;;;;;5054602;28;20225;-64
2023/03/01 10:04:59;;;;;;;3.97;3.67;;;4.70;99.90;;;;;;5055495;28;20196;-63
2023/03/01 10:07:37;;;;;;;3.47;3.28;;;4.80;99.90;;;;;;5055307;28;20208;-63
2023/03/01 10:10:07;;;;;;;3.83;3.63;;;4.80;99.90;;;;;;5054382;28;20195;-63
2023/03/01 10:12:36;;;;;;;3.70;3.50;;;5.00;99.90;;;;;;5054083;28;20228;-62
2023/03/01 10:15:10;;;;;;;3.37;3.17;;;4.90;99.90;;;;;;5052563;28;20203;-63
2023/03/01 10:17:40;;;;;;;3.80;3.60;;;5.00;99.90;;;;;;5053057;28;20226;-62
2023/03/01 10:20:21;;;;;;;3.70;3.50;;;5.10;99.90;;;;;;5052963;28;20851;-63
2023/03/01 10:22:52;;;;;;;3.60;3.40;;;5.30;99.90;;;;;;5053281;28;20667;-64
2023/03/01 10:25:26;;;;;;;3.50;3.30;;;5.30;99.90;;;;;;5052539;28;20215;-65
2023/03/01 10:27:55;;;;;;;3.47;3.17;;;5.40;99.90;;;;;;5053221;28;20215;-63
2023/03/01 10:30:32;;;;;;;3.60;3.40;;;5.60;99.90;;;;;;5052350;28;20235;-63
2023/03/01 10:32:59;;;;;;;3.40;3.20;;;5.70;99.90;;;;;;5052797;28;20333;-63
2023/03/01 10:35:30;;;;;;;3.37;3.17;;;5.60;99.90;;;;;;5052371;28;20583;-63
2023/03/01 10:38:05;;;;;;;3.43;3.23;;;5.70;99.90;;;;;;5053321;28;20224;-64
2023/03/01 10:40:33;;;;;;;3.50;3.30;;;5.80;99.90;;;;;;5052740;28;20672;-64
2023/03/01 10:43:02;;;;;;;3.40;3.20;;;6.00;99.90;;;;;;5052838;28;20234;-64
2023/03/01 10:45:35;;;;;;;3.50;3.30;;;6.00;99.90;;;;;;5052113;28;20219;-63
2023/03/01 10:48:06;;;;;;;3.50;3.20;;;6.20;99.90;;;;;;5054476;28;20223;-63
2023/03/01 10:50:34;;;;;;;3.72;3.53;;;6.30;99.90;;;;;;5052542;28;20194;-63
2023/03/01 10:53:04;;;;;;;3.67;3.47;;;6.30;99.90;;;;;;5052182;28;20258;-64
2023/03/01 10:55:35;;;;;;;3.50;3.30;;;6.40;99.90;;;;;;5051947;28;20261;-63
2023/03/01 10:58:18;;;;;;;3.43;3.23;;;6.50;99.90;;;;;;5052732;28;20601;-64
2023/03/01 11:00:52;;;;;;;3.13;3.00;;;6.50;99.90;;;;;;5052448;28;20222;-64
2023/03/01 11:03:23;;;;;;;4.90;3.27;;;6.60;99.90;;;;;;5052745;28;20204;-63
2023/03/01 11:05:58;;;;;;;3.40;3.20;;;6.70;99.90;;;;;;5055476;28;20192;-63
2023/03/01 11:08:40;;;;;;;3.40;3.20;;;6.60;99.90;;;;;;5052248;28;20199;-64
2023/03/01 11:11:19;;;;;;;4.00;3.80;;;6.80;99.90;;;;;;5051680;28;20708;-62
2023/03/01 11:13:55;;;;;;;3.30;3.10;;;6.60;99.90;;;;;;5051848;28;20696;-63
2023/03/01 11:16:32;;;;;;;3.57;3.37;;;6.70;99.90;;;;;;5051585;28;20184;-63
2023/03/01 11:19:01;;;;;;;3.23;3.03;;;6.90;99.90;;;;;;5051916;28;20238;-62
2023/03/01 11:21:33;;;;;;;3.53;3.33;;;6.80;99.90;;;;;;5051944;28;20239;-64
2023/03/01 11:24:02;;;;;;;3.43;3.23;;;6.90;99.90;;;;;;5051192;28;20200;-64
2023/03/01 11:26:31;;;;;;;3.30;3.10;;;7.00;99.90;;;;;;5051755;28;20758;-63
2023/03/01 11:29:03;;;;;;;3.70;3.50;;;7.10;99.90;;;;;;5052017;28;20208;-64
2023/03/01 11:31:30;;;;;;;3.70;3.50;;;7.10;99.90;;;;;;5051561;28;20261;-63
2023/03/01 11:34:02;;;;;;;4.13;3.85;;;6.90;99.90;;;;;;5051187;28;20587;-63
2023/03/01 11:36:35;;;;;;;3.77;3.57;;;7.10;99.90;;;;;;5052181;28;20208;-64
2023/03/01 11:39:13;;;;;;;3.57;3.37;;;7.10;99.90;;;;;;5053135;28;20554;-63
2023/03/01 11:41:41;;;;;;;3.30;3.10;;;7.10;99.90;;;;;;5051973;28;20729;-63
2023/03/01 11:44:18;;;;;;;3.33;3.13;;;7.30;99.90;;;;;;5052221;28;20309;-68
2023/03/01 11:47:03;;;;;;;3.60;3.40;;;7.40;99.90;;;;;;5054539;28;20660;-64
2023/03/01 11:50:08;;;;;;;3.50;3.30;;;7.40;99.90;;;;;;5052526;28;20207;-65
2023/03/01 11:52:49;;;;;;;3.40;3.20;;;7.30;99.90;;;;;;5051322;28;20223;-64
2023/03/01 11:55:31;;;;;;;3.67;3.47;;;7.40;99.90;;;;;;5050963;28;20237;-63
2023/03/01 11:58:19;;;;;;;3.80;3.50;;;7.60;99.90;;;;;;5051170;28;20224;-63
2023/03/01 12:01:01;;;;;;;3.30;3.10;;;7.50;99.90;;;;;;5050890;28;20204;-64
2023/03/01 12:03:45;;;;;;;4.00;3.70;;;7.60;99.90;;;;;;5051167;28;20886;-63
2023/03/01 12:06:34;;;;;;;3.60;3.40;;;7.70;99.90;;;;;;5051282;28;20199;-62
2023/03/01 12:09:16;;;;;;;3.53;3.33;;;7.80;99.90;;;;;;5051687;28;20204;-64
2023/03/01 12:11:59;;;;;;;3.60;3.40;;;7.70;99.90;;;;;;5050914;28;20227;-65
2023/03/01 12:14:50;;;;;;;3.33;3.13;;;7.70;99.90;;;;;;5051122;28;20260;-62
2023/03/01 12:17:57;;;;;;;3.67;3.47;;;7.60;99.90;;;;;;5052286;28;20212;-64
2023/03/01 12:20:31;;;;;;;3.90;3.60;;;7.70;99.90;;;;;;5051486;28;20204;-63
2023/03/01 12:23:31;;;;;;;3.67;3.47;;;7.80;99.90;;;;;;5052601;28;20225;-63
2023/03/01 12:26:07;;;;;;;3.60;3.40;;;7.80;99.90;;;;;;5035015;28;20212;-63
2023/03/01 12:28:58;;;;;;;4.20;3.90;;;7.90;99.90;;;;;;5050274;28;20282;-63
2023/03/01 12:31:45;;;;;;;3.55;3.35;;;8.00;99.90;;;;;;5050235;28;20240;-63
2023/03/01 12:34:27;;;;;;;3.77;3.57;;;7.90;99.90;;;;;;5049583;28;20912;-63
2023/03/01 12:37:11;;;;;;;3.67;3.33;;;7.80;99.90;;;;;;5050337;28;20206;-64
2023/03/01 12:39:50;;;;;;;3.60;3.40;;;8.00;99.90;;;;;;5050971;28;20230;-62
2023/03/01 12:42:26;;;;;;;3.90;3.70;;;8.20;99.90;;;;;;5051009;28;20227;-64
2023/03/01 12:45:17;;;;;;;3.57;3.37;;;8.20;99.90;;;;;;5050417;28;20203;-65
2023/03/01 12:48:00;;;;;;;3.37;3.17;;;8.20;99.90;;;;;;5051157;28;20690;-63
2023/03/01 12:50:36;;;;;;;3.73;3.53;;;8.30;99.90;;;;;;5051704;28;20192;-64
2023/03/01 12:53:03;;;;;;;4.23;3.93;;;8.30;99.90;;;;;;5052162;28;20593;-63
2023/03/01 12:55:34;;;;;;;3.97;3.67;;;8.20;99.90;;;;;;5054184;28;20223;-64
2023/03/01 12:58:17;;;;;;;3.40;3.20;;;8.30;99.90;;;;;;5054505;28;20204;-63
2023/03/01 13:00:53;;;;;;;3.57;3.37;;;8.40;99.90;;;;;;5050390;28;20207;-64
2023/03/01 13:03:30;;;;;;;3.67;3.40;;;8.40;99.90;;;;;;5049383;28;20191;-62
2023/03/01 13:06:08;;;;;;;3.50;3.30;;;8.50;99.90;;;;;;5047503;28;20204;-63
2023/03/01 13:08:42;;;;;;;3.60;3.30;;;8.40;99.90;;;;;;5053998;28;20203;-62
2023/03/01 13:11:18;;;;;;;3.88;3.67;;;8.50;99.90;;;;;;5050338;28;20228;-62